Time;durP1;ratioP1;P1;durP2;ratioP2;P2;SDS_P1;SDS_P2;PMS_P1;PMS_P2;Temp;Humidity;BMP_temperature;BMP_pressure;BME280_temperature;BME280_humidity;BME280_pressure;Samples;Min_cycle;Max_cycle;Signal;HPM_P1;HPM_P2
2021/03/18 00:01:32;;;;;;;3.70;2.90;;;;;;;0.66;70.47;102340.56;6121804;29;20207;-74
2021/03/18 00:04:53;;;;;;;7.03;2.77;;;;;;;0.53;69.98;102343.31;6121899;29;20283;-74
2021/03/18 00:08:00;;;;;;;2.90;2.70;;;;;;;0.60;68.73;102328.44;6120738;29;20403;-74
2021/03/18 00:11:07;;;;;;;4.47;3.00;;;;;;;0.67;69.69;102337.72;6121732;29;20221;-74
2021/03/18 00:14:12;;;;;;;2.97;2.67;;;;;;;0.85;68.52;102338.19;6120557;29;20199;-73
2021/03/18 00:17:17;;;;;;;2.70;2.50;;;;;;;0.83;67.97;102345.47;6121510;29;20192;-73
2021/03/18 00:20:20;;;;;;;4.73;2.90;;;;;;;0.71;68.97;102336.56;6121283;29;20192;-74
2021/03/18 00:23:25;;;;;;;3.90;2.87;;;;;;;0.93;68.82;102341.97;6121659;29;20223;-74
2021/03/18 00:26:31;;;;;;;2.60;2.50;;;;;;;0.89;68.66;102345.03;6120291;29;20546;-74
2021/03/18 00:29:34;;;;;;;3.80;2.57;;;;;;;1.05;68.40;102357.13;6121441;29;20193;-74
2021/03/18 00:32:38;;;;;;;9.63;2.60;;;;;;;1.03;68.34;102353.72;6121089;29;20189;-73
2021/03/18 00:35:43;;;;;;;2.77;2.57;;;;;;;1.03;68.98;102351.03;6121185;29;20218;-73
2021/03/18 00:38:46;;;;;;;2.60;2.50;;;;;;;0.83;69.23;102346.34;6120919;29;20191;-74
2021/03/18 00:41:51;;;;;;;4.93;2.47;;;;;;;0.78;70.11;102345.84;6119930;29;20198;-73
2021/03/18 00:44:55;;;;;;;4.13;2.57;;;;;;;0.92;69.61;102342.09;6103588;29;20231;-75
2021/03/18 00:48:01;;;;;;;2.73;2.57;;;;;;;0.88;69.83;102338.78;6120959;29;20191;-74
2021/03/18 00:51:10;;;;;;;2.90;2.70;;;;;;;0.44;70.23;102277.72;6103432;29;20247;-74
2021/03/18 00:54:16;;;;;;;2.67;2.60;;;;;;;0.97;69.83;102324.66;6119735;29;20196;-74
2021/03/18 00:57:23;;;;;;;2.97;2.17;;;;;;;1.04;69.20;102327.72;6120963;29;20259;-74
2021/03/18 01:00:30;;;;;;;2.37;2.23;;;;;;;0.91;69.68;102327.81;6119492;29;20412;-74
2021/03/18 01:03:44;;;;;;;2.87;2.60;;;;;;;1.00;69.82;102327.06;6105166;29;20243;-74
2021/03/18 01:06:48;;;;;;;2.40;2.40;;;;;;;1.04;69.94;102328.56;6103346;29;20275;-74
2021/03/18 01:09:51;;;;;;;2.60;2.40;;;;;;;1.03;70.08;102321.47;6120690;29;20192;-73
2021/03/18 01:12:55;;;;;;;2.60;2.50;;;;;;;0.91;70.83;102322.44;6120220;29;20190;-74
2021/03/18 01:16:02;;;;;;;3.00;2.90;;;;;;;0.95;71.37;102321.22;6120481;29;20196;-74
2021/03/18 01:19:10;;;;;;;4.00;2.40;;;;;;;0.83;71.03;102314.09;6120494;29;20193;-73
2021/03/18 01:22:17;;;;;;;2.77;2.57;;;;;;;0.87;70.74;102304.84;6120371;29;20222;-73
2021/03/18 01:25:24;;;;;;;2.47;2.47;;;;;;;0.67;71.49;102312.72;6120003;29;20220;-75
2021/03/18 01:28:34;;;;;;;2.80;2.70;;;;;;;0.74;71.44;102301.38;6120091;29;20266;-74
2021/03/18 01:31:40;;;;;;;2.43;2.33;;;;;;;0.65;71.39;102296.72;6119908;29;20198;-74
2021/03/18 01:34:45;;;;;;;3.27;2.73;;;;;;;0.75;70.83;102292.34;6119190;29;20197;-73
2021/03/18 01:37:50;;;;;;;2.50;2.40;;;;;;;0.68;71.16;102288.41;6119694;29;20255;-74
2021/03/18 01:40:55;;;;;;;2.67;2.43;;;;;;;0.76;70.62;102280.63;6118812;29;20390;-74
2021/03/18 01:44:03;;;;;;;2.50;2.40;;;;;;;0.73;70.63;102286.22;6118904;29;20523;-74
2021/03/18 01:47:06;;;;;;;2.57;2.43;;;;;;;0.57;71.15;102285.69;6119465;29;20192;-74
2021/03/18 01:50:16;;;;;;;2.77;2.67;;;;;;;0.60;70.92;102277.41;6119162;29;20192;-75
2021/03/18 01:53:25;;;;;;;3.53;2.70;;;;;;;0.37;71.64;102272.94;6119407;29;20271;-74
2021/03/18 01:56:30;;;;;;;2.57;2.43;;;;;;;0.47;71.73;102273.94;6119358;29;20197;-74
2021/03/18 01:59:34;;;;;;;2.37;2.30;;;;;;;0.63;71.30;102274.50;6133323;29;20247;-74
2021/03/18 02:02:38;;;;;;;2.60;2.60;;;;;;;0.32;71.52;102277.81;6119783;29;20275;-75
2021/03/18 02:06:01;;;;;;;2.57;2.47;;;;;;;0.37;71.71;102267.56;6118248;29;20246;-74
2021/03/18 02:09:10;;;;;;;2.60;2.60;;;;;;;0.69;71.22;102265.97;6118961;29;20278;-74
2021/03/18 02:12:20;;;;;;;2.77;2.57;;;;;;;0.57;71.36;102269.59;6131843;29;20199;-74
2021/03/18 02:15:31;;;;;;;2.40;2.40;;;;;;;0.43;72.19;102277.84;6117846;29;20482;-75
2021/03/18 02:18:47;;;;;;;2.70;2.53;;;;;;;0.44;72.01;102266.97;6117828;29;20509;-73
2021/03/18 02:22:20;;;;;;;2.60;2.50;;;;;;;0.20;73.05;102265.31;6119015;29;20192;-74
2021/03/18 02:25:26;;;;;;;2.87;2.70;;;;;;;0.13;73.24;102243.44;6117606;29;20219;-74
2021/03/18 02:28:47;;;;;;;2.70;2.43;;;;;;;0.17;73.42;102249.44;6117754;29;20220;-74
2021/03/18 02:32:03;;;;;;;3.37;2.70;;;;;;;0.30;73.62;102250.22;6117775;29;20478;-74
2021/03/18 02:35:21;;;;;;;2.40;2.40;;;;;;;0.19;73.55;102239.44;6118896;29;20195;-74
2021/03/18 02:38:31;;;;;;;2.90;2.80;;;;;;;-0.16;74.30;102221.50;6118532;29;20192;-75
2021/03/18 02:41:38;;;;;;;2.47;2.37;;;;;;;0.08;73.99;102223.31;6117540;29;20420;-75
2021/03/18 02:44:44;;;;;;;2.67;2.57;;;;;;;0.05;74.55;102223.53;6117176;29;20369;-74
2021/03/18 02:47:50;;;;;;;2.43;2.43;;;;;;;0.14;74.73;102225.50;6117968;29;20213;-74
2021/03/18 02:50:55;;;;;;;2.60;2.40;;;;;;;0.10;74.21;102221.34;6118225;29;20192;-74
2021/03/18 02:54:04;;;;;;;5.50;2.50;;;;;;;0.08;74.25;102204.53;6118211;29;20191;-74
2021/03/18 02:57:12;;;;;;;2.63;2.53;;;;;;;-0.09;75.18;102198.59;6117069;29;20388;-74
2021/03/18 03:00:17;;;;;;;2.87;2.70;;;;;;;-0.09;75.32;102203.97;6117113;29;20196;-74
2021/03/18 03:03:34;;;;;;;2.30;2.30;;;;;;;0.05;74.84;102200.25;6115987;29;20234;-74
2021/03/18 03:06:39;;;;;;;2.70;2.50;;;;;;;-0.04;75.26;102193.72;6118002;29;20219;-74
2021/03/18 03:09:44;;;;;;;2.87;2.67;;;;;;;0.04;75.18;102189.59;6117936;29;20214;-75
2021/03/18 03:12:48;;;;;;;2.50;2.40;;;;;;;0.02;74.50;102170.09;6118143;29;20191;-74
2021/03/18 03:15:53;;;;;;;4.30;2.30;;;;;;;0.20;74.16;102157.94;6118167;29;20194;-74
2021/03/18 03:18:58;;;;;;;2.77;2.67;;;;;;;0.42;73.37;102163.34;6117107;29;20249;-74
2021/03/18 03:22:03;;;;;;;2.40;2.20;;;;;;;0.40;73.16;102168.00;6118116;29;20190;-74
2021/03/18 03:25:08;;;;;;;6.43;2.23;;;;;;;0.34;72.03;102165.78;6117589;29;20219;-74
2021/03/18 03:28:13;;;;;;;2.10;2.10;;;;;;;0.17;72.93;102168.91;6117546;29;20199;-74
2021/03/18 03:31:17;;;;;;;2.30;2.20;;;;;;;0.26;72.57;102162.81;6117962;29;20192;-73
2021/03/18 03:34:38;;;;;;;2.97;2.23;;;;;;;0.44;72.18;102166.75;6118024;29;20212;-74
2021/03/18 03:37:44;;;;;;;2.43;2.43;;;;;;;0.33;72.43;102173.00;6117670;29;20224;-75
2021/03/18 03:40:48;;;;;;;3.23;2.37;;;;;;;0.40;72.95;102176.06;6117793;29;20311;-73
2021/03/18 03:43:51;;;;;;;2.27;2.27;;;;;;;-0.03;73.56;102168.59;6118067;29;20263;-74
2021/03/18 03:46:55;;;;;;;2.60;2.33;;;;;;;-0.06;74.35;102168.84;6117476;29;20219;-73
2021/03/18 03:49:58;;;;;;;2.37;2.27;;;;;;;-0.01;74.84;102172.03;6116335;29;20480;-74
2021/03/18 03:53:11;;;;;;;2.30;2.20;;;;;;;0.07;74.70;102178.66;6117827;29;20305;-73
2021/03/18 03:56:20;;;;;;;4.47;2.57;;;;;;;-0.11;74.95;102175.53;6117574;29;20248;-73
2021/03/18 03:59:26;;;;;;;3.00;2.90;;;;;;;-0.15;75.28;102174.03;6116315;29;20191;-75
2021/03/18 04:02:31;;;;;;;2.33;2.23;;;;;;;-0.12;75.69;102180.03;6117754;29;20207;-73
2021/03/18 04:05:42;;;;;;;2.13;2.13;;;;;;;-0.20;75.54;102177.06;6117089;29;20273;-74
2021/03/18 04:08:46;;;;;;;2.60;2.50;;;;;;;-0.15;75.37;102174.91;6117235;29;20191;-74
2021/03/18 04:11:51;;;;;;;2.70;2.57;;;;;;;-0.12;75.76;102174.69;6117530;29;20230;-74
2021/03/18 04:14:58;;;;;;;3.73;2.43;;;;;;;-0.19;75.63;102178.78;6119470;29;20228;-74
2021/03/18 04:18:04;;;;;;;2.90;2.63;;;;;;;-0.18;75.94;102185.84;6120680;29;20496;-75
2021/03/18 04:21:10;;;;;;;2.10;2.10;;;;;;;-0.04;75.03;102182.13;6121862;29;20285;-74
2021/03/18 04:24:17;;;;;;;2.80;2.30;;;;;;;0.12;74.69;102181.84;6120464;29;20190;-74
2021/03/18 04:27:23;;;;;;;3.17;2.07;;;;;;;-0.01;75.43;102172.03;6120435;29;20239;-74
2021/03/18 04:30:27;;;;;;;2.17;2.10;;;;;;;-0.08;74.84;102160.03;6121176;29;20193;-74
2021/03/18 04:33:31;;;;;;;2.93;2.00;;;;;;;0.08;74.60;102170.47;6120404;29;20227;-74
2021/03/18 04:36:36;;;;;;;3.53;2.73;;;;;;;-0.10;74.99;102172.72;6120103;29;20404;-73
2021/03/18 04:39:42;;;;;;;2.60;2.50;;;;;;;-0.08;75.57;102176.13;6121313;29;20192;-73
2021/03/18 04:42:46;;;;;;;2.87;2.20;;;;;;;-0.03;75.10;102162.41;6120991;29;20216;-74
2021/03/18 04:45:50;;;;;;;5.07;2.37;;;;;;;-0.09;76.03;102161.03;6119899;29;20584;-75
2021/03/18 04:48:56;;;;;;;2.60;2.50;;;;;;;0.01;75.99;102158.50;6120740;29;20198;-74
2021/03/18 04:52:00;;;;;;;2.13;2.03;;;;;;;-0.05;76.01;102165.19;6121096;29;20239;-74
2021/03/18 04:55:06;;;;;;;2.00;1.90;;;;;;;-0.03;76.45;102165.91;6120118;29;20364;-74
2021/03/18 04:58:11;;;;;;;5.73;2.60;;;;;;;-0.14;76.08;102152.47;6121061;29;20239;-74
2021/03/18 05:01:17;;;;;;;2.17;2.17;;;;;;;-0.09;76.47;102173.59;6120482;29;20206;-74
2021/03/18 05:04:23;;;;;;;2.17;2.13;;;;;;;-0.12;75.95;102158.56;6119945;29;20242;-74
2021/03/18 05:07:29;;;;;;;2.20;2.00;;;;;;;-0.17;75.73;102159.88;6120653;29;20293;-74
2021/03/18 05:10:39;;;;;;;2.33;2.07;;;;;;;0.12;75.79;102160.38;6119371;29;20475;-74
2021/03/18 05:13:45;;;;;;;3.80;2.40;;;;;;;0.13;75.25;102129.88;6119424;29;20451;-74
2021/03/18 05:16:49;;;;;;;6.73;2.27;;;;;;;0.35;74.27;102162.13;6119310;29;20200;-74
2021/03/18 05:19:53;;;;;;;2.53;2.17;;;;;;;0.23;74.71;102157.72;6120512;29;20229;-74
2021/03/18 05:22:56;;;;;;;1.97;1.97;;;;;;;-0.02;74.79;102154.22;6120583;29;20198;-74
2021/03/18 05:26:01;;;;;;;2.50;2.40;;;;;;;0.20;74.85;102160.63;6119077;29;20217;-74
2021/03/18 05:29:17;;;;;;;2.57;2.00;;;;;;;-0.02;74.81;102159.59;6120221;29;20190;-74
2021/03/18 05:32:20;;;;;;;5.33;2.20;;;;;;;-0.05;75.88;102154.44;6120147;29;20212;-74
2021/03/18 05:35:23;;;;;;;1.93;1.93;;;;;;;0.13;74.55;102149.50;6118821;29;20258;-74
2021/03/18 05:38:27;;;;;;;1.70;1.70;;;;;;;-0.09;75.98;102136.88;6119961;29;20197;-74
2021/03/18 05:41:32;;;;;;;1.87;1.87;;;;;;;0.04;75.51;102149.34;6120055;29;20198;-74
2021/03/18 05:44:35;;;;;;;3.10;1.80;;;;;;;-0.07;75.74;102151.03;6119959;29;20190;-75
2021/03/18 05:47:39;;;;;;;2.23;2.00;;;;;;;0.10;74.82;102146.22;6118573;29;20552;-74
2021/03/18 05:50:43;;;;;;;2.90;1.73;;;;;;;0.28;74.11;102145.66;6119633;29;20223;-74
2021/03/18 05:53:48;;;;;;;5.33;1.93;;;;;;;0.44;73.38;102140.78;6119691;29;20197;-74
2021/03/18 05:56:55;;;;;;;2.53;1.90;;;;;;;0.35;74.44;102146.03;6119327;29;20231;-75
2021/03/18 05:59:58;;;;;;;2.57;1.70;;;;;;;0.41;73.99;102146.38;6118290;29;20256;-74
2021/03/18 06:03:02;;;;;;;2.93;1.60;;;;;;;0.49;72.74;102140.41;6119038;29;20283;-74
2021/03/18 06:06:10;;;;;;;4.77;1.87;;;;;;;0.61;72.67;102136.78;6119101;29;20282;-74
2021/03/18 06:09:13;;;;;;;2.53;1.93;;;;;;;0.44;73.57;102134.53;6118397;29;20192;-74
2021/03/18 06:12:20;;;;;;;2.03;1.77;;;;;;;0.44;73.84;102150.66;6102771;29;20192;-73
2021/03/18 06:15:26;;;;;;;7.10;2.00;;;;;;;0.42;73.81;102136.50;6119004;29;20257;-74
2021/03/18 06:18:35;;;;;;;3.07;1.67;;;;;;;0.50;73.40;102128.69;6117901;29;20358;-74
2021/03/18 06:21:43;;;;;;;6.33;1.70;;;;;;;0.57;73.07;102129.91;6118971;29;20192;-74
2021/03/18 06:24:48;;;;;;;2.23;2.13;;;;;;;0.74;72.15;102121.41;6119025;29;20263;-74
2021/03/18 06:28:18;;;;;;;1.90;1.90;;;;;;;0.71;72.39;102127.00;6117626;29;20489;-74
2021/03/18 06:31:21;;;;;;;6.93;1.80;;;;;;;0.71;71.60;102132.38;6118478;29;20224;-75
2021/03/18 06:34:38;;;;;;;1.53;1.43;;;;;;;0.77;71.27;102136.41;6118323;29;20230;-74
2021/03/18 06:37:46;;;;;;;6.30;1.60;;;;;;;0.64;71.22;102144.59;6118571;29;20196;-75
2021/03/18 06:40:49;;;;;;;2.97;2.20;;;;;;;0.47;70.74;102147.75;6118051;29;20198;-74
2021/03/18 06:43:53;;;;;;;5.70;1.77;;;;;;;0.76;69.71;102135.56;6117069;29;20480;-75
2021/03/18 06:47:05;;;;;;;1.63;1.53;;;;;;;0.92;69.18;102146.78;6118062;29;20223;-74
2021/03/18 06:50:12;;;;;;;4.30;1.50;;;;;;;0.96;68.72;102148.25;6117834;29;20192;-75
2021/03/18 06:53:20;;;;;;;1.83;1.47;;;;;;;0.85;68.72;102140.19;6100761;29;20212;-74
2021/03/18 06:56:26;;;;;;;4.23;1.60;;;;;;;0.91;69.17;102145.06;6116990;29;20281;-75
2021/03/18 06:59:33;;;;;;;11.53;1.70;;;;;;;0.85;68.80;102140.19;6117985;29;20234;-74
2021/03/18 07:02:41;;;;;;;7.67;1.60;;;;;;;0.78;68.62;102122.84;6116638;29;20270;-74
2021/03/18 07:05:45;;;;;;;4.17;1.70;;;;;;;0.87;68.43;102135.56;6116787;29;20466;-74
2021/03/18 07:09:00;;;;;;;2.87;1.40;;;;;;;0.93;68.46;102143.09;6117637;29;20190;-74
2021/03/18 07:12:06;;;;;;;7.27;1.37;;;;;;;1.00;68.19;102128.19;6117335;29;20224;-74
2021/03/18 07:15:18;;;;;;;6.83;1.57;;;;;;;1.04;67.48;102110.84;6117401;29;20464;-74
2021/03/18 07:18:28;;;;;;;4.37;1.60;;;;;;;1.03;67.37;102138.69;6117838;29;20258;-73
2021/03/18 07:21:35;;;;;;;4.73;1.50;;;;;;;1.15;67.33;102126.97;6117411;29;20271;-74
2021/03/18 07:24:39;;;;;;;9.53;1.40;;;;;;;1.19;66.80;102120.34;6117782;29;20199;-74
2021/03/18 12:14:23;;;;;;;0.90;0.90;;;;;;;4.65;64.61;102066.50;6363731;27;20680;-80
2021/03/18 12:17:28;;;;;;;0.80;0.80;;;;;;;4.73;63.83;102058.50;6364529;28;20211;-79
2021/03/18 12:20:33;;;;;;;0.60;0.60;;;;;;;4.79;62.49;102052.53;6361932;28;20183;-79
2021/03/18 12:23:37;;;;;;;0.97;0.73;;;;;;;4.58;62.56;102015.91;6361849;28;20390;-78
2021/03/18 12:26:40;;;;;;;2.97;0.90;;;;;;;4.80;62.79;102048.78;6361451;28;20400;-78
2021/03/18 12:29:45;;;;;;;0.80;0.80;;;;;;;4.77;62.88;102059.94;6363165;28;20185;-78
2021/03/18 12:32:50;;;;;;;0.70;0.70;;;;;;;4.94;62.66;102077.19;6363121;28;20273;-80
2021/03/18 12:35:55;;;;;;;1.03;0.87;;;;;;;4.54;63.69;102064.03;6364178;28;20185;-79
2021/03/18 12:38:58;;;;;;;2.27;1.00;;;;;;;4.18;69.37;102105.38;6362539;28;20190;-79
2021/03/18 12:42:13;;;;;;;0.97;0.70;;;;;;;3.48;73.57;102117.31;6361878;28;20190;-79
2021/03/18 12:45:18;;;;;;;2.87;1.40;;;;;;;3.11;76.65;102086.56;6362207;28;20475;-79
2021/03/18 12:48:27;;;;;;;1.60;1.50;;;;;;;2.65;78.31;102008.13;6363426;28;20185;-79
2021/03/18 12:51:30;;;;;;;1.10;1.00;;;;;;;3.27;78.88;102100.38;6362257;28;20218;-78
2021/03/18 12:54:36;;;;;;;1.00;1.00;;;;;;;3.14;80.73;102102.47;6365848;28;20194;-79
2021/03/18 12:57:42;;;;;;;1.00;1.00;;;;;;;3.20;81.36;102112.72;6363884;28;20188;-79
2021/03/18 13:00:48;;;;;;;0.80;0.80;;;;;;;3.14;81.40;102081.75;6367820;28;20185;-78
2021/03/18 13:04:08;;;;;;;1.50;1.30;;;;;;;3.22;80.56;102094.56;6363742;28;20189;-80
2021/03/18 13:07:16;;;;;;;0.80;0.80;;;;;;;3.15;81.78;102104.19;6360776;28;20182;-79
2021/03/18 13:10:20;;;;;;;2.03;0.90;;;;;;;3.11;81.04;102097.34;6362569;28;20188;-78
2021/03/18 13:13:29;;;;;;;1.03;1.00;;;;;;;2.95;82.39;102086.25;6354384;28;20245;-79
2021/03/18 13:16:34;;;;;;;1.00;1.00;;;;;;;3.13;81.78;102104.31;6343368;28;20349;-78
2021/03/18 13:19:37;;;;;;;1.00;1.00;;;;;;;3.17;82.09;102107.59;6342152;28;20475;-78
2021/03/18 13:22:41;;;;;;;0.90;0.90;;;;;;;3.29;81.05;102090.28;6341612;28;20228;-77
2021/03/18 13:25:45;;;;;;;0.90;0.90;;;;;;;3.32;80.33;102094.56;6343935;28;20232;-78
2021/03/18 13:28:49;;;;;;;1.10;1.10;;;;;;;3.26;80.54;102101.38;6343600;28;20499;-78
2021/03/18 13:31:54;;;;;;;0.90;0.90;;;;;;;3.21;79.60;102100.94;6344961;28;20264;-79
2021/03/18 13:34:58;;;;;;;1.10;1.10;;;;;;;3.47;78.47;102104.81;6345555;28;20245;-79
2021/03/18 13:38:01;;;;;;;1.10;1.10;;;;;;;3.53;78.33;102103.41;6344843;28;20186;-79
2021/03/18 13:41:05;;;;;;;2.20;1.30;;;;;;;3.48;78.98;102082.25;6344867;28;20184;-79
2021/03/18 13:44:15;;;;;;;1.50;1.50;;;;;;;3.34;79.61;102104.22;6343917;28;20233;-79
2021/03/18 13:47:23;;;;;;;4.27;3.90;;;;;;;3.30;80.62;102097.41;6346102;28;20191;-79
2021/03/18 13:50:29;;;;;;;2.40;2.30;;;;;;;3.34;81.12;102096.13;6344104;28;20186;-80
2021/03/18 13:53:33;;;;;;;2.17;2.10;;;;;;;3.49;79.87;102112.78;6344224;28;20514;-78
2021/03/18 13:56:37;;;;;;;3.47;3.27;;;;;;;3.37;80.53;102130.06;6344837;28;20248;-78
2021/03/18 13:59:43;;;;;;;2.00;1.90;;;;;;;3.22;79.75;102116.13;6344408;28;20456;-78
2021/03/18 14:02:51;;;;;;;4.20;3.80;;;;;;;2.72;80.40;102074.00;6345830;28;20188;-80
2021/03/18 14:06:10;;;;;;;1.60;1.60;;;;;;;2.95;79.35;102140.19;6345233;28;20191;-79
2021/03/18 14:09:18;;;;;;;1.67;1.53;;;;;;;2.80;79.94;102131.59;6344669;28;20185;-79
2021/03/18 14:12:27;;;;;;;1.87;1.77;;;;;;;2.86;79.65;102147.25;6344298;28;20239;-78
2021/03/18 14:15:31;;;;;;;2.07;1.97;;;;;;;2.71;80.53;102147.72;6343281;28;20200;-79
2021/03/18 14:18:40;;;;;;;1.63;1.63;;;;;;;2.70;79.86;102156.78;6344422;28;20183;-79
2021/03/18 14:21:43;;;;;;;1.80;1.80;;;;;;;2.79;79.29;102140.69;6343427;28;20184;-78
2021/03/18 14:24:46;;;;;;;3.20;1.50;;;;;;;2.74;77.23;102160.94;6342542;28;20183;-80
2021/03/18 14:27:52;;;;;;;1.73;1.67;;;;;;;2.77;76.51;102152.59;6344781;28;20184;-79
2021/03/18 14:31:09;;;;;;;2.43;1.90;;;;;;;2.80;75.46;102146.94;6344497;28;20184;-78
2021/03/18 14:34:15;;;;;;;1.57;1.57;;;;;;;2.71;74.44;102153.13;6343156;28;20212;-80
2021/03/18 14:37:19;;;;;;;1.90;1.80;;;;;;;2.62;74.42;102164.72;6343739;28;20188;-81
2021/03/18 14:40:25;;;;;;;1.70;1.70;;;;;;;2.71;74.04;102163.91;6342995;28;20218;-80
2021/03/18 14:43:44;;;;;;;1.40;1.40;;;;;;;2.67;73.45;102157.09;6343599;28;20187;-81
2021/03/18 14:46:48;;;;;;;1.93;1.80;;;;;;;2.66;73.65;102166.16;6343407;28;20222;-80
2021/03/18 14:49:53;;;;;;;1.50;1.50;;;;;;;2.68;72.59;102169.56;6344056;28;20183;-80
2021/03/18 14:53:01;;;;;;;1.70;1.70;;;;;;;2.72;72.64;102154.84;6343483;28;20605;-81
2021/03/18 14:56:06;;;;;;;1.70;1.70;;;;;;;2.69;71.89;102160.50;6341159;28;20499;-80
2021/03/18 14:59:29;;;;;;;1.40;1.40;;;;;;;2.77;69.69;102168.75;6340972;28;20478;-80
2021/03/18 15:02:32;;;;;;;1.73;1.60;;;;;;;2.62;69.47;102168.25;6341433;28;20187;-80
2021/03/18 15:05:46;;;;;;;1.90;1.40;;;;;;;2.58;69.19;102174.03;6342763;28;20252;-79
2021/03/18 15:08:54;;;;;;;1.77;1.67;;;;;;;2.47;69.43;102156.09;6342261;28;20191;-80
2021/03/18 15:11:58;;;;;;;1.80;1.70;;;;;;;2.63;68.63;102183.44;6341370;28;20231;-78
2021/03/18 15:15:01;;;;;;;2.03;1.83;;;;;;;2.66;69.15;102176.91;6340993;28;20437;-78
2021/03/18 15:18:13;;;;;;;1.57;1.57;;;;;;;2.57;68.16;102172.34;6342036;28;20185;-80
2021/03/18 15:21:18;;;;;;;1.50;1.50;;;;;;;2.61;68.42;102189.94;6341160;28;20221;-79
2021/03/18 15:24:21;;;;;;;1.77;1.67;;;;;;;2.44;66.55;102184.16;6341342;28;20216;-80
2021/03/18 15:27:27;;;;;;;2.93;1.83;;;;;;;2.51;66.95;102185.38;6341496;28;20182;-79
2021/03/18 15:30:32;;;;;;;1.80;1.70;;;;;;;2.36;64.56;102165.09;6341890;28;20202;-80
2021/03/18 15:33:39;;;;;;;1.90;1.60;;;;;;;2.38;63.91;102205.41;6341130;28;20260;-80
2021/03/18 15:36:43;;;;;;;1.80;1.80;;;;;;;2.29;61.50;102198.94;6341486;28;20246;-79
2021/03/18 15:39:47;;;;;;;2.13;2.00;;;;;;;2.28;61.86;102204.47;6340738;28;20186;-79
2021/03/18 15:42:51;;;;;;;4.33;1.60;;;;;;;2.21;61.87;102204.13;6342166;28;20235;-80
2021/03/18 15:45:58;;;;;;;3.03;1.90;;;;;;;2.32;61.33;102212.16;6342075;28;20237;-79
2021/03/18 15:49:07;;;;;;;2.23;2.00;;;;;;;2.06;60.20;102194.66;6341548;28;20469;-79
2021/03/18 15:52:14;;;;;;;5.90;1.60;;;;;;;1.94;61.79;102222.59;6342727;28;20256;-80
2021/03/18 15:55:20;;;;;;;2.20;1.60;;;;;;;1.91;61.18;102217.47;6341469;28;20250;-79
2021/03/18 15:58:26;;;;;;;5.83;1.70;;;;;;;1.92;61.75;102221.88;6341718;28;20247;-80
2021/03/18 16:01:30;;;;;;;1.50;1.50;;;;;;;1.83;61.02;102226.19;6340798;28;20369;-79
2021/03/18 16:04:49;;;;;;;4.83;1.50;;;;;;;1.76;59.41;102234.91;6341288;28;20235;-80
2021/03/18 16:08:13;;;;;;;1.50;1.50;;;;;;;1.78;59.26;102243.69;6339781;28;20477;-81
2021/03/18 16:11:27;;;;;;;2.60;1.70;;;;;;;1.74;58.99;102228.78;6342345;28;20224;-81
2021/03/18 16:14:30;;;;;;;2.30;1.80;;;;;;;1.59;59.58;102232.75;6343051;28;20236;-80
2021/03/18 16:17:39;;;;;;;2.10;2.00;;;;;;;1.55;60.25;102236.66;6344416;28;20193;-79
2021/03/18 16:20:45;;;;;;;1.57;1.43;;;;;;;1.48;59.44;102219.31;6342162;28;20183;-79
2021/03/18 16:23:51;;;;;;;1.90;1.80;;;;;;;1.46;59.52;102245.47;6340476;28;20502;-79
2021/03/18 16:26:54;;;;;;;3.77;1.70;;;;;;;1.57;59.65;102258.88;6340948;28;20183;-80
2021/03/18 16:29:57;;;;;;;6.43;1.83;;;;;;;1.41;59.22;102258.44;6341336;28;20187;-80
2021/03/18 16:33:27;;;;;;;3.93;1.80;;;;;;;1.24;57.30;102265.16;6341806;28;20309;-79
2021/03/18 16:36:31;;;;;;;1.50;1.50;;;;;;;1.11;56.02;102278.72;6341288;28;20186;-80
2021/03/18 16:39:39;;;;;;;1.60;1.60;;;;;;;1.15;55.77;102280.22;6340460;28;20193;-80
2021/03/18 16:42:42;;;;;;;4.73;1.30;;;;;;;1.09;53.81;102275.31;6340923;28;20222;-80
2021/03/18 16:45:46;;;;;;;1.47;1.40;;;;;;;1.06;53.32;102272.84;6340721;28;20194;-80
2021/03/18 16:48:51;;;;;;;3.10;1.40;;;;;;;0.90;53.02;102298.38;6341323;28;20185;-80
2021/03/18 16:51:59;;;;;;;1.50;1.40;;;;;;;0.91;52.99;102298.25;6345636;28;20217;-79
2021/03/18 16:55:04;;;;;;;1.30;1.30;;;;;;;0.87;53.33;102304.84;6343773;28;20221;-81
2021/03/18 16:58:12;;;;;;;1.40;1.30;;;;;;;0.87;53.14;102309.34;6348472;28;20268;-81
2021/03/18 17:01:17;;;;;;;1.40;1.40;;;;;;;0.75;52.57;102305.78;6349259;28;20229;-81
2021/03/18 17:04:40;;;;;;;1.50;1.50;;;;;;;0.72;51.45;102300.63;6347918;28;20194;-80
2021/03/18 17:08:01;;;;;;;1.53;1.53;;;;;;;0.64;50.81;102292.34;6344710;28;20189;-80
2021/03/18 17:11:06;;;;;;;3.77;1.37;;;;;;;0.66;51.89;102295.75;6343398;28;20209;-80
2021/03/18 17:14:13;;;;;;;1.20;1.20;;;;;;;0.73;51.55;102310.41;6343867;28;20240;-80
2021/03/18 17:17:20;;;;;;;1.47;1.40;;;;;;;0.74;51.98;102306.75;6344095;28;20183;-80
2021/03/18 17:20:25;;;;;;;1.33;1.30;;;;;;;0.58;52.12;102314.28;6344422;28;20185;-81
2021/03/18 17:23:31;;;;;;;1.60;1.20;;;;;;;0.11;52.62;102249.88;6343894;28;20250;-81
2021/03/18 17:26:35;;;;;;;2.77;1.60;;;;;;;0.51;52.87;102318.41;6344043;28;20183;-80
2021/03/18 17:29:38;;;;;;;1.53;1.47;;;;;;;0.44;53.24;102333.25;6344158;28;20186;-78
2021/03/18 17:32:42;;;;;;;1.13;1.13;;;;;;;0.18;53.02;102320.94;6342758;28;20185;-82
2021/03/18 17:35:47;;;;;;;3.80;1.33;;;;;;;0.24;53.59;102350.00;6343696;28;20188;-80
2021/03/18 17:38:51;;;;;;;1.20;1.20;;;;;;;0.17;54.21;102356.81;6343142;28;20256;-81
2021/03/18 17:41:55;;;;;;;1.90;1.80;;;;;;;0.14;54.85;102346.28;6344049;28;20212;-81
2021/03/18 17:44:58;;;;;;;3.87;1.50;;;;;;;-0.57;54.99;102253.19;6344531;28;20221;-82
2021/03/18 17:48:03;;;;;;;1.70;1.60;;;;;;;0.05;56.54;102363.09;6379133;27;20272;-82
2021/03/18 17:51:09;;;;;;;3.33;2.97;;;;;;;-0.47;56.29;102274.81;6346013;28;20200;-81
2021/03/18 17:54:13;;;;;;;2.33;2.20;;;;;;;0.07;57.35;102371.88;6345179;28;20209;-82
2021/03/18 17:57:19;;;;;;;3.00;2.00;;;;;;;-0.01;57.38;102365.25;6345828;28;20191;-81
2021/03/18 18:00:25;;;;;;;3.07;1.90;;;;;;;-0.09;57.86;102362.25;6343949;28;20230;-82
2021/03/18 18:03:35;;;;;;;1.87;1.40;;;;;;;-0.18;57.23;102384.38;6345565;28;20186;-83
2021/03/18 18:06:39;;;;;;;2.87;1.63;;;;;;;-0.11;57.07;102391.03;6344242;28;20452;-81
2021/03/18 18:09:43;;;;;;;2.27;1.80;;;;;;;-0.26;57.49;102397.50;6345858;28;20185;-82
2021/03/18 18:12:47;;;;;;;4.00;1.70;;;;;;;-0.18;57.37;102395.09;6344567;28;20239;-82
2021/03/18 18:15:50;;;;;;;1.80;1.70;;;;;;;-0.23;57.84;102397.25;6342996;28;20207;-81
2021/03/18 18:18:54;;;;;;;1.53;1.53;;;;;;;-0.32;57.94;102407.78;6344083;28;20212;-82
2021/03/18 18:21:57;;;;;;;10.53;1.90;;;;;;;-0.38;58.11;102401.03;6342429;28;20194;-81
2021/03/18 18:25:01;;;;;;;3.40;1.90;;;;;;;-0.32;58.62;102397.91;6342811;28;20207;-81
2021/03/18 18:28:08;;;;;;;2.50;2.30;;;;;;;-0.35;58.61;102400.81;6343514;28;20184;-81
2021/03/18 18:31:13;;;;;;;1.53;1.50;;;;;;;-0.40;58.08;102400.28;6342808;28;20230;-80
2021/03/18 18:34:20;;;;;;;3.20;1.53;;;;;;;-0.45;58.63;102423.88;6341574;28;20211;-80
2021/03/18 18:37:23;;;;;;;5.73;1.50;;;;;;;-0.44;59.26;102425.63;6342182;28;20187;-80
2021/03/18 18:40:30;;;;;;;1.67;1.67;;;;;;;-0.39;58.92;102427.97;6341318;28;20475;-79
2021/03/18 18:43:34;;;;;;;5.50;1.70;;;;;;;-0.31;59.97;102437.16;6341845;28;20197;-80
2021/03/18 18:46:47;;;;;;;1.97;1.83;;;;;;;-0.53;58.91;102404.78;6341737;28;20199;-80
2021/03/18 18:49:51;;;;;;;1.60;1.50;;;;;;;-0.47;59.57;102436.56;6342270;28;20251;-82
2021/03/18 18:52:55;;;;;;;1.70;1.60;;;;;;;-0.51;58.19;102434.19;6342550;28;20184;-82
2021/03/18 18:55:59;;;;;;;2.60;1.50;;;;;;;-0.61;58.06;102428.59;6341569;28;20269;-82
2021/03/18 18:59:03;;;;;;;1.50;1.50;;;;;;;-0.67;58.18;102456.69;6342093;28;20215;-80
2021/03/18 19:02:08;;;;;;;6.40;2.10;;;;;;;-0.60;58.14;102442.88;6341629;28;20183;-80
2021/03/18 19:05:17;;;;;;;2.33;1.83;;;;;;;-0.59;58.74;102448.09;6340574;28;20247;-79
2021/03/18 19:08:25;;;;;;;1.43;1.40;;;;;;;-0.53;58.44;102436.97;6340597;28;20187;-80
2021/03/18 19:11:29;;;;;;;1.87;1.40;;;;;;;-0.50;58.41;102447.50;6340038;28;20288;-78
2021/03/18 19:14:33;;;;;;;2.63;1.87;;;;;;;-0.62;58.93;102448.34;6341674;28;20210;-78
2021/03/18 19:17:37;;;;;;;3.20;1.50;;;;;;;-0.72;58.76;102463.34;6341397;28;20198;-79
2021/03/18 19:20:43;;;;;;;2.50;1.60;;;;;;;-0.80;59.45;102460.34;6340800;28;20251;-79
2021/03/18 19:23:46;;;;;;;4.10;1.60;;;;;;;-0.82;59.55;102462.22;6342254;28;20188;-79